Aérodrome :
LOGIN :

S'inscrire | Disclaimer

   EN    FR    IT 

 










Légende :    VFR   VFR Marginal   IFR   IFR Intensif   IFR Très Intensif
Visi : 
Plafond : 
>= 8 km
>= 3000ft
5 à 8 km
1000 à 3000 ft
1500m à 5 km
500 à 1000 ft
800 à 1500m
200 à 500 ft
< 800m
< 200 ft
Symboles :   Orages  Brouillard  Fortes neiges  Fortes précipitations  Vent > 20 kt
SIGMETs :   Divers  Orages  Givrage  Turbulence  Onde Orograph.  Cendres Volcan.







- Altitude de l'aérodrome : 479 ft
- Code IATA : DOL
- Voir les cartes d'approche


LFRG - Deauville

DERNIER METAR :
  • 251500Z AUTO 34004KT 280V030 9999 OVC004 17/15 Q1019 BECMG BKN020

METARs EXPIRÉS :
  • 251430Z AUTO 32005KT 290V350 9999 OVC005 17/15 Q1019 BECMG BKN020
  • 251400Z AUTO VRB03KT 9999 OVC003 16/15 Q1019 BECMG BKN020
  • 251330Z AUTO 32003KT 280V350 9999 OVC005 16/15 Q1019 BECMG BKN020
  • 251300Z AUTO 31004KT 290V360 4400 BR OVC004 17/15 Q1018 BECMG 9999 NSW BKN020
  • 251230Z AUTO VRB03KT 4500 BR OVC005 17/15 Q1018 BECMG 9999 NSW BKN020

TAF AMD TAF LFRG
Valide du 25 à 15h jusqu'au 26 à 00h UTC


251505Z 2515/2524 VRB03KT 9999 BKN015
TEMPO 2515/2518 BKN020
TEMPO 2515/2524 3000 RADZ BKN004
ATIS : +33 2 31 65 65 36
Pas de NOTAMs connus pour ce terrain.



MET'MAP, la Météo Aéronautique d'un coup d'oeil ! - Copyright ORBIFLY Décembre 2007 - Disclaimer

ORBIFLY MET'MAP TEAM :

Programmation & Développement : Alexandra Zaïnal
Conception & Développement : Baudouin d'Aumeries
Co-Programmation & Développement : Marc-Olivier Méhu
Soutien technique & logistique : Manuel Goepfert

Contact : metmap@orbifly.com




SOURCES & CREDITS :

   NOAA